sensor_id;sensor_type;location;lat;lon;timestamp;temperature;humidity
43999;DHT22;51319;52.162;5.302;2023-03-04T00:00:09;6.60;77.00
43999;DHT22;51319;52.162;5.302;2023-03-04T00:02:36;6.60;77.20
43999;DHT22;51319;52.162;5.302;2023-03-04T00:05:03;6.60;77.30
43999;DHT22;51319;52.162;5.302;2023-03-04T00:07:30;6.60;77.40
43999;DHT22;51319;52.162;5.302;2023-03-04T00:09:57;6.60;77.50
43999;DHT22;51319;52.162;5.302;2023-03-04T00:12:24;6.60;77.60
43999;DHT22;51319;52.162;5.302;2023-03-04T00:14:51;6.60;77.60
43999;DHT22;51319;52.162;5.302;2023-03-04T00:17:17;6.60;77.70
43999;DHT22;51319;52.162;5.302;2023-03-04T00:19:44;6.60;77.80
43999;DHT22;51319;52.162;5.302;2023-03-04T00:22:11;6.60;77.90
43999;DHT22;51319;52.162;5.302;2023-03-04T00:24:38;6.60;78.00
43999;DHT22;51319;52.162;5.302;2023-03-04T00:27:04;6.50;77.90
43999;DHT22;51319;52.162;5.302;2023-03-04T00:29:31;6.60;77.70
43999;DHT22;51319;52.162;5.302;2023-03-04T00:31:58;6.60;77.60
43999;DHT22;51319;52.162;5.302;2023-03-04T00:34:25;6.50;77.60
43999;DHT22;51319;52.162;5.302;2023-03-04T00:36:52;6.50;77.50
43999;DHT22;51319;52.162;5.302;2023-03-04T00:39:19;6.50;78.20
43999;DHT22;51319;52.162;5.302;2023-03-04T00:41:45;6.50;77.60
43999;DHT22;51319;52.162;5.302;2023-03-04T00:44:12;6.50;77.70
43999;DHT22;51319;52.162;5.302;2023-03-04T00:46:39;6.50;77.70
43999;DHT22;51319;52.162;5.302;2023-03-04T00:49:06;6.50;77.70
43999;DHT22;51319;52.162;5.302;2023-03-04T00:51:33;6.50;77.90
43999;DHT22;51319;52.162;5.302;2023-03-04T00:54:00;6.50;78.00
43999;DHT22;51319;52.162;5.302;2023-03-04T00:56:28;6.50;78.20
43999;DHT22;51319;52.162;5.302;2023-03-04T00:58:55;6.50;78.20
43999;DHT22;51319;52.162;5.302;2023-03-04T01:01:22;6.50;78.20
43999;DHT22;51319;52.162;5.302;2023-03-04T01:03:49;6.50;78.20
43999;DHT22;51319;52.162;5.302;2023-03-04T01:06:15;6.50;78.30
43999;DHT22;51319;52.162;5.302;2023-03-04T01:08:42;6.50;78.40
43999;DHT22;51319;52.162;5.302;2023-03-04T01:11:09;6.50;78.60
43999;DHT22;51319;52.162;5.302;2023-03-04T01:13:36;6.50;78.80
43999;DHT22;51319;52.162;5.302;2023-03-04T01:16:03;6.50;78.80
43999;DHT22;51319;52.162;5.302;2023-03-04T01:18:31;6.50;78.70
43999;DHT22;51319;52.162;5.302;2023-03-04T01:20:58;6.50;78.40
43999;DHT22;51319;52.162;5.302;2023-03-04T01:23:25;6.40;78.30
43999;DHT22;51319;52.162;5.302;2023-03-04T01:25:53;6.40;78.10
43999;DHT22;51319;52.162;5.302;2023-03-04T01:28:20;6.40;77.80
43999;DHT22;51319;52.162;5.302;2023-03-04T01:30:47;6.50;77.80
43999;DHT22;51319;52.162;5.302;2023-03-04T01:33:14;6.40;77.60
43999;DHT22;51319;52.162;5.302;2023-03-04T01:35:40;6.40;77.80
43999;DHT22;51319;52.162;5.302;2023-03-04T01:38:07;6.40;77.80
43999;DHT22;51319;52.162;5.302;2023-03-04T01:40:34;6.40;77.80
43999;DHT22;51319;52.162;5.302;2023-03-04T01:43:03;6.40;77.70
43999;DHT22;51319;52.162;5.302;2023-03-04T01:45:31;6.40;77.80
43999;DHT22;51319;52.162;5.302;2023-03-04T01:47:58;6.40;77.90
43999;DHT22;51319;52.162;5.302;2023-03-04T01:50:33;6.40;78.20
43999;DHT22;51319;52.162;5.302;2023-03-04T01:53:02;6.40;78.20
43999;DHT22;51319;52.162;5.302;2023-03-04T01:55:30;6.40;78.20
43999;DHT22;51319;52.162;5.302;2023-03-04T01:57:57;6.40;78.00
43999;DHT22;51319;52.162;5.302;2023-03-04T02:00:32;6.40;77.80
43999;DHT22;51319;52.162;5.302;2023-03-04T02:03:03;6.40;77.80
43999;DHT22;51319;52.162;5.302;2023-03-04T02:05:33;6.40;77.60
43999;DHT22;51319;52.162;5.302;2023-03-04T02:08:02;6.40;77.60
43999;DHT22;51319;52.162;5.302;2023-03-04T02:10:30;6.40;77.60
43999;DHT22;51319;52.162;5.302;2023-03-04T02:12:59;6.40;77.70
43999;DHT22;51319;52.162;5.302;2023-03-04T02:15:26;6.40;77.70
43999;DHT22;51319;52.162;5.302;2023-03-04T02:17:53;6.40;77.60
43999;DHT22;51319;52.162;5.302;2023-03-04T02:23:29;6.40;77.70
43999;DHT22;51319;52.162;5.302;2023-03-04T02:26:14;6.40;77.60
43999;DHT22;51319;52.162;5.302;2023-03-04T02:28:42;6.40;77.50
43999;DHT22;51319;52.162;5.302;2023-03-04T02:31:33;6.40;77.40
43999;DHT22;51319;52.162;5.302;2023-03-04T02:34:25;6.40;77.60
43999;DHT22;51319;52.162;5.302;2023-03-04T02:36:54;6.40;77.70
43999;DHT22;51319;52.162;5.302;2023-03-04T02:39:30;6.40;77.70
43999;DHT22;51319;52.162;5.302;2023-03-04T02:41:58;6.40;78.00
43999;DHT22;51319;52.162;5.302;2023-03-04T02:44:28;6.40;78.00
43999;DHT22;51319;52.162;5.302;2023-03-04T02:46:56;6.40;78.00
43999;DHT22;51319;52.162;5.302;2023-03-04T02:49:26;6.30;77.90
43999;DHT22;51319;52.162;5.302;2023-03-04T02:54:25;6.40;78.20
43999;DHT22;51319;52.162;5.302;2023-03-04T02:56:55;6.40;78.40
43999;DHT22;51319;52.162;5.302;2023-03-04T02:59:22;6.30;78.30
43999;DHT22;51319;52.162;5.302;2023-03-04T03:01:50;6.30;78.30
43999;DHT22;51319;52.162;5.302;2023-03-04T03:04:18;6.30;78.30
43999;DHT22;51319;52.162;5.302;2023-03-04T03:06:45;6.30;78.20
43999;DHT22;51319;52.162;5.302;2023-03-04T03:09:12;6.30;78.20
43999;DHT22;51319;52.162;5.302;2023-03-04T03:11:39;6.30;78.30
43999;DHT22;51319;52.162;5.302;2023-03-04T03:14:06;6.30;78.30
43999;DHT22;51319;52.162;5.302;2023-03-04T03:16:33;6.30;78.30
43999;DHT22;51319;52.162;5.302;2023-03-04T03:19:00;6.30;78.30
43999;DHT22;51319;52.162;5.302;2023-03-04T03:21:27;6.30;78.50
43999;DHT22;51319;52.162;5.302;2023-03-04T03:23:54;6.30;78.40
43999;DHT22;51319;52.162;5.302;2023-03-04T03:26:21;6.30;78.50
43999;DHT22;51319;52.162;5.302;2023-03-04T03:28:48;6.30;78.50
43999;DHT22;51319;52.162;5.302;2023-03-04T03:31:15;6.30;78.60
43999;DHT22;51319;52.162;5.302;2023-03-04T03:33:42;6.30;78.70
43999;DHT22;51319;52.162;5.302;2023-03-04T03:36:09;6.30;78.80
43999;DHT22;51319;52.162;5.302;2023-03-04T03:38:36;6.30;78.90
43999;DHT22;51319;52.162;5.302;2023-03-04T03:41:03;6.30;79.00
43999;DHT22;51319;52.162;5.302;2023-03-04T03:43:30;6.30;79.00
43999;DHT22;51319;52.162;5.302;2023-03-04T03:45:57;6.30;79.10
43999;DHT22;51319;52.162;5.302;2023-03-04T03:48:24;6.30;79.20
43999;DHT22;51319;52.162;5.302;2023-03-04T03:50:51;6.30;79.50
43999;DHT22;51319;52.162;5.302;2023-03-04T03:53:18;6.30;79.80
43999;DHT22;51319;52.162;5.302;2023-03-04T03:55:44;6.20;80.10
43999;DHT22;51319;52.162;5.302;2023-03-04T03:58:11;6.20;80.40
43999;DHT22;51319;52.162;5.302;2023-03-04T04:00:38;6.20;80.80
43999;DHT22;51319;52.162;5.302;2023-03-04T04:03:05;6.20;81.10
43999;DHT22;51319;52.162;5.302;2023-03-04T04:05:32;6.20;81.00
43999;DHT22;51319;52.162;5.302;2023-03-04T04:07:59;6.20;80.90
43999;DHT22;51319;52.162;5.302;2023-03-04T04:10:26;6.10;80.70
43999;DHT22;51319;52.162;5.302;2023-03-04T04:12:53;6.10;80.60
43999;DHT22;51319;52.162;5.302;2023-03-04T04:15:19;6.10;80.50
43999;DHT22;51319;52.162;5.302;2023-03-04T04:17:46;6.10;80.20
43999;DHT22;51319;52.162;5.302;2023-03-04T04:20:13;6.20;80.10
43999;DHT22;51319;52.162;5.302;2023-03-04T04:22:40;6.20;79.90
43999;DHT22;51319;52.162;5.302;2023-03-04T04:25:07;6.20;79.90
43999;DHT22;51319;52.162;5.302;2023-03-04T04:27:36;6.20;80.00
43999;DHT22;51319;52.162;5.302;2023-03-04T04:30:03;6.10;79.90
43999;DHT22;51319;52.162;5.302;2023-03-04T04:32:31;6.10;79.90
43999;DHT22;51319;52.162;5.302;2023-03-04T04:34:58;6.10;80.00
43999;DHT22;51319;52.162;5.302;2023-03-04T04:37:25;6.20;80.10
43999;DHT22;51319;52.162;5.302;2023-03-04T04:39:51;6.20;80.40
43999;DHT22;51319;52.162;5.302;2023-03-04T04:42:21;6.20;80.50
43999;DHT22;51319;52.162;5.302;2023-03-04T04:44:48;6.20;80.60
43999;DHT22;51319;52.162;5.302;2023-03-04T04:47:15;6.10;80.70
43999;DHT22;51319;52.162;5.302;2023-03-04T04:49:42;6.20;81.00
43999;DHT22;51319;52.162;5.302;2023-03-04T04:52:09;6.10;81.20
43999;DHT22;51319;52.162;5.302;2023-03-04T04:54:36;6.10;81.40
43999;DHT22;51319;52.162;5.302;2023-03-04T04:57:03;6.10;81.70
43999;DHT22;51319;52.162;5.302;2023-03-04T04:59:30;6.10;81.80
43999;DHT22;51319;52.162;5.302;2023-03-04T05:01:56;6.10;82.10
43999;DHT22;51319;52.162;5.302;2023-03-04T05:04:23;6.10;82.30
43999;DHT22;51319;52.162;5.302;2023-03-04T05:06:50;6.10;82.50
43999;DHT22;51319;52.162;5.302;2023-03-04T05:09:17;6.10;82.60
43999;DHT22;51319;52.162;5.302;2023-03-04T05:11:45;6.10;82.70
43999;DHT22;51319;52.162;5.302;2023-03-04T05:14:11;6.10;82.90
43999;DHT22;51319;52.162;5.302;2023-03-04T05:16:38;6.10;83.10
43999;DHT22;51319;52.162;5.302;2023-03-04T05:19:05;6.10;83.10
43999;DHT22;51319;52.162;5.302;2023-03-04T05:21:32;6.10;83.20
43999;DHT22;51319;52.162;5.302;2023-03-04T05:23:59;6.10;83.40
43999;DHT22;51319;52.162;5.302;2023-03-04T05:26:26;6.10;83.50
43999;DHT22;51319;52.162;5.302;2023-03-04T05:28:53;6.10;83.60
43999;DHT22;51319;52.162;5.302;2023-03-04T05:31:19;6.00;83.70
43999;DHT22;51319;52.162;5.302;2023-03-04T05:33:46;6.10;83.80
43999;DHT22;51319;52.162;5.302;2023-03-04T05:36:13;6.00;84.00
43999;DHT22;51319;52.162;5.302;2023-03-04T05:38:40;6.00;84.20
43999;DHT22;51319;52.162;5.302;2023-03-04T05:41:07;5.90;84.40
43999;DHT22;51319;52.162;5.302;2023-03-04T05:43:34;6.00;84.70
43999;DHT22;51319;52.162;5.302;2023-03-04T05:46:03;5.90;84.90
43999;DHT22;51319;52.162;5.302;2023-03-04T05:48:30;5.90;85.20
43999;DHT22;51319;52.162;5.302;2023-03-04T05:50:59;5.90;85.40
43999;DHT22;51319;52.162;5.302;2023-03-04T05:53:26;5.90;85.60
43999;DHT22;51319;52.162;5.302;2023-03-04T05:55:54;5.90;85.90
43999;DHT22;51319;52.162;5.302;2023-03-04T05:58:22;5.90;86.10
43999;DHT22;51319;52.162;5.302;2023-03-04T06:00:49;5.90;86.20
43999;DHT22;51319;52.162;5.302;2023-03-04T06:03:20;5.90;86.40
43999;DHT22;51319;52.162;5.302;2023-03-04T06:05:48;5.90;86.70
43999;DHT22;51319;52.162;5.302;2023-03-04T06:08:14;5.90;86.90
43999;DHT22;51319;52.162;5.302;2023-03-04T06:10:41;5.90;86.60
43999;DHT22;51319;52.162;5.302;2023-03-04T06:13:09;5.80;86.70
43999;DHT22;51319;52.162;5.302;2023-03-04T06:15:36;5.80;87.00
43999;DHT22;51319;52.162;5.302;2023-03-04T06:18:04;5.80;87.20
43999;DHT22;51319;52.162;5.302;2023-03-04T06:20:31;5.90;87.40
43999;DHT22;51319;52.162;5.302;2023-03-04T06:22:58;5.90;87.60
43999;DHT22;51319;52.162;5.302;2023-03-04T06:25:25;5.80;87.70
43999;DHT22;51319;52.162;5.302;2023-03-04T06:27:52;5.90;87.90
43999;DHT22;51319;52.162;5.302;2023-03-04T06:30:22;5.80;87.90
43999;DHT22;51319;52.162;5.302;2023-03-04T06:32:49;5.90;88.10
43999;DHT22;51319;52.162;5.302;2023-03-04T06:35:16;5.90;88.20
43999;DHT22;51319;52.162;5.302;2023-03-04T06:37:43;5.90;88.20
43999;DHT22;51319;52.162;5.302;2023-03-04T06:40:10;5.90;88.30
43999;DHT22;51319;52.162;5.302;2023-03-04T06:42:38;5.90;88.40
43999;DHT22;51319;52.162;5.302;2023-03-04T06:45:06;5.90;88.40
43999;DHT22;51319;52.162;5.302;2023-03-04T06:47:33;6.00;88.40
43999;DHT22;51319;52.162;5.302;2023-03-04T06:50:00;5.90;88.30
43999;DHT22;51319;52.162;5.302;2023-03-04T06:52:29;5.90;88.40
43999;DHT22;51319;52.162;5.302;2023-03-04T06:54:56;5.90;88.50
43999;DHT22;51319;52.162;5.302;2023-03-04T06:57:22;6.00;88.70
43999;DHT22;51319;52.162;5.302;2023-03-04T06:59:49;6.00;88.70
43999;DHT22;51319;52.162;5.302;2023-03-04T07:02:16;6.10;88.50
43999;DHT22;51319;52.162;5.302;2023-03-04T07:04:43;6.00;88.60
43999;DHT22;51319;52.162;5.302;2023-03-04T07:07:10;6.10;88.80
43999;DHT22;51319;52.162;5.302;2023-03-04T07:09:37;6.10;89.30
43999;DHT22;51319;52.162;5.302;2023-03-04T07:12:04;6.10;89.60
43999;DHT22;51319;52.162;5.302;2023-03-04T07:14:31;6.10;90.00
43999;DHT22;51319;52.162;5.302;2023-03-04T07:16:58;6.20;90.40
43999;DHT22;51319;52.162;5.302;2023-03-04T07:19:25;6.30;90.60
43999;DHT22;51319;52.162;5.302;2023-03-04T07:21:51;6.30;90.70
43999;DHT22;51319;52.162;5.302;2023-03-04T07:24:18;6.40;90.80
43999;DHT22;51319;52.162;5.302;2023-03-04T07:26:45;6.60;90.90
43999;DHT22;51319;52.162;5.302;2023-03-04T07:29:12;6.60;90.90
43999;DHT22;51319;52.162;5.302;2023-03-04T07:31:39;6.70;90.90
43999;DHT22;51319;52.162;5.302;2023-03-04T07:34:10;6.60;91.00
43999;DHT22;51319;52.162;5.302;2023-03-04T07:36:38;6.70;91.10
43999;DHT22;51319;52.162;5.302;2023-03-04T07:39:05;6.80;91.20
43999;DHT22;51319;52.162;5.302;2023-03-04T07:41:33;6.90;91.10
43999;DHT22;51319;52.162;5.302;2023-03-04T07:44:03;6.90;91.00
43999;DHT22;51319;52.162;5.302;2023-03-04T07:46:31;7.00;91.10
43999;DHT22;51319;52.162;5.302;2023-03-04T07:48:58;7.10;91.10
43999;DHT22;51319;52.162;5.302;2023-03-04T07:51:26;7.20;90.80
43999;DHT22;51319;52.162;5.302;2023-03-04T07:53:56;7.30;90.70
43999;DHT22;51319;52.162;5.302;2023-03-04T07:56:25;7.40;90.50
43999;DHT22;51319;52.162;5.302;2023-03-04T07:58:52;7.40;90.30
43999;DHT22;51319;52.162;5.302;2023-03-04T08:01:25;7.50;90.30
43999;DHT22;51319;52.162;5.302;2023-03-04T08:03:52;7.60;90.30
43999;DHT22;51319;52.162;5.302;2023-03-04T08:06:20;7.70;90.00
43999;DHT22;51319;52.162;5.302;2023-03-04T08:08:49;7.70;89.50
43999;DHT22;51319;52.162;5.302;2023-03-04T08:11:18;7.60;89.10
43999;DHT22;51319;52.162;5.302;2023-03-04T08:13:46;7.60;89.00
43999;DHT22;51319;52.162;5.302;2023-03-04T08:16:15;7.60;88.90
43999;DHT22;51319;52.162;5.302;2023-03-04T08:18:43;7.60;88.80
43999;DHT22;51319;52.162;5.302;2023-03-04T08:21:11;7.60;88.80
43999;DHT22;51319;52.162;5.302;2023-03-04T08:23:40;7.90;89.30
43999;DHT22;51319;52.162;5.302;2023-03-04T08:26:10;8.90;89.60
43999;DHT22;51319;52.162;5.302;2023-03-04T08:28:38;9.50;85.70
43999;DHT22;51319;52.162;5.302;2023-03-04T08:31:05;9.70;83.60
43999;DHT22;51319;52.162;5.302;2023-03-04T08:33:33;9.60;82.00
43999;DHT22;51319;52.162;5.302;2023-03-04T08:36:00;9.50;81.20
43999;DHT22;51319;52.162;5.302;2023-03-04T08:38:27;9.70;81.40
43999;DHT22;51319;52.162;5.302;2023-03-04T08:40:55;9.90;80.30
43999;DHT22;51319;52.162;5.302;2023-03-04T08:43:24;10.20;79.50
43999;DHT22;51319;52.162;5.302;2023-03-04T08:45:52;10.10;78.40
43999;DHT22;51319;52.162;5.302;2023-03-04T08:48:20;9.80;77.90
43999;DHT22;51319;52.162;5.302;2023-03-04T08:50:48;9.50;78.80
43999;DHT22;51319;52.162;5.302;2023-03-04T08:53:16;9.30;79.70
43999;DHT22;51319;52.162;5.302;2023-03-04T08:55:43;9.10;80.60
43999;DHT22;51319;52.162;5.302;2023-03-04T08:58:11;8.80;81.80
43999;DHT22;51319;52.162;5.302;2023-03-04T09:00:41;8.70;83.60
43999;DHT22;51319;52.162;5.302;2023-03-04T09:03:11;8.70;85.90
43999;DHT22;51319;52.162;5.302;2023-03-04T09:05:39;9.10;88.00
43999;DHT22;51319;52.162;5.302;2023-03-04T09:08:06;9.40;87.70
43999;DHT22;51319;52.162;5.302;2023-03-04T09:10:33;9.90;87.70
43999;DHT22;51319;52.162;5.302;2023-03-04T09:13:00;10.20;86.10
43999;DHT22;51319;52.162;5.302;2023-03-04T09:15:28;10.30;85.10
43999;DHT22;51319;52.162;5.302;2023-03-04T09:17:54;10.50;84.70
43999;DHT22;51319;52.162;5.302;2023-03-04T09:20:21;10.50;83.90
43999;DHT22;51319;52.162;5.302;2023-03-04T09:22:48;10.40;84.00
43999;DHT22;51319;52.162;5.302;2023-03-04T09:25:15;10.40;85.00
43999;DHT22;51319;52.162;5.302;2023-03-04T09:27:42;10.80;85.80
43999;DHT22;51319;52.162;5.302;2023-03-04T09:30:10;11.00;83.40
43999;DHT22;51319;52.162;5.302;2023-03-04T09:32:37;10.90;82.70
43999;DHT22;51319;52.162;5.302;2023-03-04T09:35:04;10.90;82.80
43999;DHT22;51319;52.162;5.302;2023-03-04T09:37:31;11.10;83.20
43999;DHT22;51319;52.162;5.302;2023-03-04T09:39:58;11.30;82.10
43999;DHT22;51319;52.162;5.302;2023-03-04T09:42:41;11.00;80.90
43999;DHT22;51319;52.162;5.302;2023-03-04T09:45:15;10.80;81.50
43999;DHT22;51319;52.162;5.302;2023-03-04T09:47:43;10.90;81.90
43999;DHT22;51319;52.162;5.302;2023-03-04T09:50:19;11.50;82.00
43999;DHT22;51319;52.162;5.302;2023-03-04T09:53:00;11.90;79.60
43999;DHT22;51319;52.162;5.302;2023-03-04T09:55:36;12.30;78.90
43999;DHT22;51319;52.162;5.302;2023-03-04T10:01:00;12.80;75.30
43999;DHT22;51319;52.162;5.302;2023-03-04T10:03:44;12.60;74.70
43999;DHT22;51319;52.162;5.302;2023-03-04T10:06:19;12.30;74.20
43999;DHT22;51319;52.162;5.302;2023-03-04T10:09:13;11.90;74.50
43999;DHT22;51319;52.162;5.302;2023-03-04T10:12:01;11.80;76.00
43999;DHT22;51319;52.162;5.302;2023-03-04T10:14:48;13.30;75.40
43999;DHT22;51319;52.162;5.302;2023-03-04T10:17:25;14.20;72.70
43999;DHT22;51319;52.162;5.302;2023-03-04T10:20:06;15.10;68.50
43999;DHT22;51319;52.162;5.302;2023-03-04T10:23:01;15.10;67.40
43999;DHT22;51319;52.162;5.302;2023-03-04T10:25:42;15.50;65.30
43999;DHT22;51319;52.162;5.302;2023-03-04T10:28:16;15.60;65.30
43999;DHT22;51319;52.162;5.302;2023-03-04T10:33:30;14.60;64.40
43999;DHT22;51319;52.162;5.302;2023-03-04T10:38:36;15.10;66.50
43999;DHT22;51319;52.162;5.302;2023-03-04T10:41:22;15.90;63.10
43999;DHT22;51319;52.162;5.302;2023-03-04T10:44:04;16.20;61.10
43999;DHT22;51319;52.162;5.302;2023-03-04T10:46:41;16.00;60.70
43999;DHT22;51319;52.162;5.302;2023-03-04T10:49:09;15.70;61.20
43999;DHT22;51319;52.162;5.302;2023-03-04T10:51:44;15.60;62.50
43999;DHT22;51319;52.162;5.302;2023-03-04T10:57:02;15.00;61.30
43999;DHT22;51319;52.162;5.302;2023-03-04T10:59:48;14.70;62.80
43999;DHT22;51319;52.162;5.302;2023-03-04T11:07:59;14.10;64.90
43999;DHT22;51319;52.162;5.302;2023-03-04T11:10:41;13.80;64.90
43999;DHT22;51319;52.162;5.302;2023-03-04T11:13:27;13.40;65.90
43999;DHT22;51319;52.162;5.302;2023-03-04T11:16:00;12.80;68.00
43999;DHT22;51319;52.162;5.302;2023-03-04T11:18:40;12.40;69.60
43999;DHT22;51319;52.162;5.302;2023-03-04T11:21:16;11.80;71.80
43999;DHT22;51319;52.162;5.302;2023-03-04T11:29:16;11.40;76.10
43999;DHT22;51319;52.162;5.302;2023-03-04T11:34:50;13.40;73.10
43999;DHT22;51319;52.162;5.302;2023-03-04T11:40:30;13.80;69.10
43999;DHT22;51319;52.162;5.302;2023-03-04T11:43:10;14.00;68.30
43999;DHT22;51319;52.162;5.302;2023-03-04T11:51:26;15.10;67.50
43999;DHT22;51319;52.162;5.302;2023-03-04T11:54:26;16.80;63.10
43999;DHT22;51319;52.162;5.302;2023-03-04T11:57:07;18.30;58.20
43999;DHT22;51319;52.162;5.302;2023-03-04T11:59:52;17.40;56.70
43999;DHT22;51319;52.162;5.302;2023-03-04T12:03:21;16.50;57.70
43999;DHT22;51319;52.162;5.302;2023-03-04T12:06:02;15.50;58.80
43999;DHT22;51319;52.162;5.302;2023-03-04T12:14:31;13.60;63.00
43999;DHT22;51319;52.162;5.302;2023-03-04T12:17:55;13.20;64.70
43999;DHT22;51319;52.162;5.302;2023-03-04T12:31:41;12.10;69.00
43999;DHT22;51319;52.162;5.302;2023-03-04T12:34:27;12.00;68.30
43999;DHT22;51319;52.162;5.302;2023-03-04T12:43:20;12.10;67.70
43999;DHT22;51319;52.162;5.302;2023-03-04T12:45:52;12.20;67.60
43999;DHT22;51319;52.162;5.302;2023-03-04T12:54:13;12.90;65.00
43999;DHT22;51319;52.162;5.302;2023-03-04T12:56:52;12.80;64.00
43999;DHT22;51319;52.162;5.302;2023-03-04T12:59:24;12.60;64.20
43999;DHT22;51319;52.162;5.302;2023-03-04T13:09:17;12.10;64.80
43999;DHT22;51319;52.162;5.302;2023-03-04T13:19:43;11.70;68.80
43999;DHT22;51319;52.162;5.302;2023-03-04T13:25:35;11.50;68.70
43999;DHT22;51319;52.162;5.302;2023-03-04T13:28:25;11.40;67.30
43999;DHT22;51319;52.162;5.302;2023-03-04T13:36:32;11.10;69.10
43999;DHT22;51319;52.162;5.302;2023-03-04T13:39:21;11.20;69.30
43999;DHT22;51319;52.162;5.302;2023-03-04T13:41:52;11.30;68.70
43999;DHT22;51319;52.162;5.302;2023-03-04T13:47:15;11.70;67.40
43999;DHT22;51319;52.162;5.302;2023-03-04T13:49:44;11.70;66.80
43999;DHT22;51319;52.162;5.302;2023-03-04T13:52:48;11.70;67.70
43999;DHT22;51319;52.162;5.302;2023-03-04T13:55:32;11.50;66.70
43999;DHT22;51319;52.162;5.302;2023-03-04T13:57:59;11.30;66.90
43999;DHT22;51319;52.162;5.302;2023-03-04T14:00:27;11.10;66.80
43999;DHT22;51319;52.162;5.302;2023-03-04T14:02:54;10.90;66.90
43999;DHT22;51319;52.162;5.302;2023-03-04T14:05:21;10.80;67.10
43999;DHT22;51319;52.162;5.302;2023-03-04T14:07:48;10.70;66.60
43999;DHT22;51319;52.162;5.302;2023-03-04T14:15:21;10.50;65.30
43999;DHT22;51319;52.162;5.302;2023-03-04T14:17:51;10.50;65.10
43999;DHT22;51319;52.162;5.302;2023-03-04T14:20:36;10.50;65.30
43999;DHT22;51319;52.162;5.302;2023-03-04T14:34:04;10.40;65.10
43999;DHT22;51319;52.162;5.302;2023-03-04T14:36:34;10.30;65.50
43999;DHT22;51319;52.162;5.302;2023-03-04T14:39:04;10.30;65.60
43999;DHT22;51319;52.162;5.302;2023-03-04T14:41:35;10.20;65.50
43999;DHT22;51319;52.162;5.302;2023-03-04T14:46:59;10.10;65.90
43999;DHT22;51319;52.162;5.302;2023-03-04T14:49:37;10.00;66.80
43999;DHT22;51319;52.162;5.302;2023-03-04T14:52:05;9.90;67.30
43999;DHT22;51319;52.162;5.302;2023-03-04T14:54:39;9.90;67.10
43999;DHT22;51319;52.162;5.302;2023-03-04T14:57:23;9.80;67.30
43999;DHT22;51319;52.162;5.302;2023-03-04T14:59:52;9.70;68.00
43999;DHT22;51319;52.162;5.302;2023-03-04T15:02:56;9.60;68.50
43999;DHT22;51319;52.162;5.302;2023-03-04T15:05:27;9.50;69.90
43999;DHT22;51319;52.162;5.302;2023-03-04T15:07:57;9.50;69.90
43999;DHT22;51319;52.162;5.302;2023-03-04T15:10:27;9.40;70.30
43999;DHT22;51319;52.162;5.302;2023-03-04T15:12:57;9.40;70.60
43999;DHT22;51319;52.162;5.302;2023-03-04T15:15:34;9.30;70.80
43999;DHT22;51319;52.162;5.302;2023-03-04T15:20:41;9.30;71.40
43999;DHT22;51319;52.162;5.302;2023-03-04T15:23:17;9.40;72.10
43999;DHT22;51319;52.162;5.302;2023-03-04T15:25:44;9.40;71.40
43999;DHT22;51319;52.162;5.302;2023-03-04T15:28:18;9.50;71.60
43999;DHT22;51319;52.162;5.302;2023-03-04T15:30:45;9.50;71.40
43999;DHT22;51319;52.162;5.302;2023-03-04T15:33:12;9.50;71.30
43999;DHT22;51319;52.162;5.302;2023-03-04T15:35:48;9.40;71.20
43999;DHT22;51319;52.162;5.302;2023-03-04T15:38:15;9.50;71.00
43999;DHT22;51319;52.162;5.302;2023-03-04T15:40:42;9.50;70.80
43999;DHT22;51319;52.162;5.302;2023-03-04T15:43:19;9.40;70.60
43999;DHT22;51319;52.162;5.302;2023-03-04T15:45:48;9.40;70.70
43999;DHT22;51319;52.162;5.302;2023-03-04T15:48:16;9.40;70.70
43999;DHT22;51319;52.162;5.302;2023-03-04T15:50:59;9.30;70.70
43999;DHT22;51319;52.162;5.302;2023-03-04T15:53:35;9.20;71.00
43999;DHT22;51319;52.162;5.302;2023-03-04T15:56:04;9.20;71.10
43999;DHT22;51319;52.162;5.302;2023-03-04T15:58:34;9.20;70.60
43999;DHT22;51319;52.162;5.302;2023-03-04T16:01:04;9.10;70.50
43999;DHT22;51319;52.162;5.302;2023-03-04T16:03:31;9.10;70.20
43999;DHT22;51319;52.162;5.302;2023-03-04T16:05:58;9.10;69.90
43999;DHT22;51319;52.162;5.302;2023-03-04T16:08:25;9.10;69.90
43999;DHT22;51319;52.162;5.302;2023-03-04T16:10:53;9.10;70.20
43999;DHT22;51319;52.162;5.302;2023-03-04T16:13:22;9.10;70.00
43999;DHT22;51319;52.162;5.302;2023-03-04T16:15:50;9.10;69.70
43999;DHT22;51319;52.162;5.302;2023-03-04T16:18:20;9.00;69.50
43999;DHT22;51319;52.162;5.302;2023-03-04T16:20:50;9.00;69.50
43999;DHT22;51319;52.162;5.302;2023-03-04T16:23:22;8.90;69.50
43999;DHT22;51319;52.162;5.302;2023-03-04T16:25:54;8.90;69.50
43999;DHT22;51319;52.162;5.302;2023-03-04T16:28:22;8.90;69.80
43999;DHT22;51319;52.162;5.302;2023-03-04T16:30:51;8.80;69.60
43999;DHT22;51319;52.162;5.302;2023-03-04T16:33:18;8.80;68.30
43999;DHT22;51319;52.162;5.302;2023-03-04T16:35:45;8.70;68.50
43999;DHT22;51319;52.162;5.302;2023-03-04T16:38:31;8.70;68.80
43999;DHT22;51319;52.162;5.302;2023-03-04T16:41:00;8.60;68.60
43999;DHT22;51319;52.162;5.302;2023-03-04T16:43:28;8.60;68.60
43999;DHT22;51319;52.162;5.302;2023-03-04T16:45:54;8.50;68.30
43999;DHT22;51319;52.162;5.302;2023-03-04T16:48:22;8.50;67.80
43999;DHT22;51319;52.162;5.302;2023-03-04T16:50:49;8.50;67.90
43999;DHT22;51319;52.162;5.302;2023-03-04T16:53:36;8.40;67.70
43999;DHT22;51319;52.162;5.302;2023-03-04T16:56:09;8.40;67.40
43999;DHT22;51319;52.162;5.302;2023-03-04T17:03:55;8.30;68.40
43999;DHT22;51319;52.162;5.302;2023-03-04T17:06:23;8.20;68.60
43999;DHT22;51319;52.162;5.302;2023-03-04T17:08:50;8.20;68.90
43999;DHT22;51319;52.162;5.302;2023-03-04T17:11:19;8.20;69.10
43999;DHT22;51319;52.162;5.302;2023-03-04T17:13:47;8.10;69.30
43999;DHT22;51319;52.162;5.302;2023-03-04T17:16:15;8.00;69.50
43999;DHT22;51319;52.162;5.302;2023-03-04T17:18:42;8.00;69.60
43999;DHT22;51319;52.162;5.302;2023-03-04T17:21:18;8.00;69.80
43999;DHT22;51319;52.162;5.302;2023-03-04T17:23:45;7.90;69.90
43999;DHT22;51319;52.162;5.302;2023-03-04T17:26:12;7.90;70.10
43999;DHT22;51319;52.162;5.302;2023-03-04T17:28:41;7.90;70.50
43999;DHT22;51319;52.162;5.302;2023-03-04T17:31:13;7.80;70.60
43999;DHT22;51319;52.162;5.302;2023-03-04T17:33:41;7.80;70.80
43999;DHT22;51319;52.162;5.302;2023-03-04T17:36:11;7.80;71.20
43999;DHT22;51319;52.162;5.302;2023-03-04T17:38:38;7.70;71.30
43999;DHT22;51319;52.162;5.302;2023-03-04T17:41:08;7.70;71.50
43999;DHT22;51319;52.162;5.302;2023-03-04T17:43:36;7.60;71.80
43999;DHT22;51319;52.162;5.302;2023-03-04T17:46:07;7.60;72.20
43999;DHT22;51319;52.162;5.302;2023-03-04T17:48:35;7.60;72.90
43999;DHT22;51319;52.162;5.302;2023-03-04T17:51:02;7.50;73.10
43999;DHT22;51319;52.162;5.302;2023-03-04T17:53:29;7.50;73.40
43999;DHT22;51319;52.162;5.302;2023-03-04T17:56:05;7.40;73.80
43999;DHT22;51319;52.162;5.302;2023-03-04T17:58:34;7.40;74.70
43999;DHT22;51319;52.162;5.302;2023-03-04T18:01:10;7.40;74.80
43999;DHT22;51319;52.162;5.302;2023-03-04T18:03:40;7.30;75.20